createdAt,value
2019-04-07T00:04:44.217Z,9.50
2019-04-07T00:07:18.377Z,9.50
2019-04-07T00:09:51.835Z,9.50
2019-04-07T00:12:25.401Z,9.50
2019-04-07T00:14:58.889Z,9.50
2019-04-07T00:17:32.360Z,9.50
2019-04-07T00:20:07.835Z,9.50
2019-04-07T00:22:42.171Z,9.40
2019-04-07T00:25:15.774Z,9.50
2019-04-07T00:27:49.239Z,9.50
2019-04-07T00:30:23.974Z,9.40
2019-04-07T00:32:57.422Z,9.40
2019-04-07T00:35:32.613Z,9.40
2019-04-07T00:38:06.155Z,9.30
2019-04-07T00:40:39.576Z,9.40
2019-04-07T00:43:13.628Z,9.30
2019-04-07T00:45:49.191Z,9.20
2019-04-07T00:48:23.200Z,9.30
2019-04-07T00:50:56.790Z,9.30
2019-04-07T00:53:30.272Z,9.20
2019-04-07T00:56:03.957Z,9.20
2019-04-07T00:58:38.290Z,9.20
2019-04-07T01:01:13.403Z,9.30
2019-04-07T01:03:46.915Z,9.30
2019-04-07T01:06:20.392Z,9.30
2019-04-07T01:11:52.397Z,9.30
2019-04-07T01:17:34.527Z,9.20
2019-04-07T01:20:10.646Z,9.10
2019-04-07T01:22:43.994Z,9.20
2019-04-07T01:25:17.643Z,9.20
2019-04-07T01:27:51.230Z,9.20
2019-04-07T01:30:27.229Z,9.20
2019-04-07T01:33:00.922Z,9.20
2019-04-07T01:35:45.074Z,9.20
2019-04-07T01:38:11.733Z,9.20
2019-04-07T01:40:46.733Z,9.20
2019-04-07T01:43:25.117Z,9.30
2019-04-07T01:46:06.330Z,9.30
2019-04-07T01:48:45.706Z,9.30
2019-04-07T01:55:09.211Z,9.20
2019-04-07T01:57:57.054Z,9.30
2019-04-07T02:00:33.750Z,9.20
2019-04-07T02:03:12.106Z,9.20
2019-04-07T02:06:05.031Z,9.20
2019-04-07T02:08:55.905Z,9.20
2019-04-07T02:11:30.966Z,9.20
2019-04-07T02:14:16.560Z,9.20
2019-04-07T02:17:08.009Z,9.00
2019-04-07T02:19:43.196Z,9.10
2019-04-07T02:22:19.277Z,9.10
2019-04-07T02:24:55.417Z,9.10
2019-04-07T02:27:31.772Z,9.20
2019-04-07T02:30:22.145Z,9.20
2019-04-07T02:33:03.270Z,9.10
2019-04-07T02:35:41.871Z,9.20
2019-04-07T02:38:21.494Z,9.20
2019-04-07T02:40:57.509Z,9.20
2019-04-07T02:43:32.769Z,9.20
2019-04-07T02:46:06.063Z,9.20
2019-04-07T02:48:57.755Z,9.20
2019-04-07T02:51:33.739Z,9.20
2019-04-07T02:54:27.387Z,9.00
2019-04-07T02:57:08.364Z,9.10
2019-04-07T03:00:01.496Z,9.10
2019-04-07T03:02:39.385Z,9.10
2019-04-07T03:05:15.727Z,9.20
2019-04-07T03:07:58.089Z,9.20
2019-04-07T03:10:33.427Z,9.20
2019-04-07T03:13:10.645Z,9.10
2019-04-07T03:16:02.149Z,9.10
2019-04-07T03:18:37.418Z,9.10
2019-04-07T03:21:19.664Z,9.10
2019-04-07T03:23:54.865Z,9.10
2019-04-07T03:26:48.684Z,9.20
2019-04-07T03:29:40.282Z,9.20
2019-04-07T03:32:45.078Z,9.10
2019-04-07T03:35:34.829Z,9.20
2019-04-07T03:38:22.644Z,9.00
2019-04-07T03:41:19.681Z,9.00
2019-04-07T03:43:57.620Z,8.90
2019-04-07T03:46:30.817Z,9.00
2019-04-07T03:49:07.272Z,9.00
2019-04-07T03:51:49.758Z,9.00
2019-04-07T03:54:24.915Z,9.00
2019-04-07T03:57:16.572Z,9.00
2019-04-07T03:59:51.815Z,9.00
2019-04-07T04:02:29.575Z,9.00
2019-04-07T04:05:19.084Z,9.10
2019-04-07T04:08:02.163Z,9.10
2019-04-07T04:10:40.776Z,9.10
2019-04-07T04:13:23.084Z,9.10
2019-04-07T04:16:01.079Z,9.10
2019-04-07T04:18:35.228Z,9.10
2019-04-07T04:21:09.089Z,9.10
2019-04-07T04:23:44.284Z,9.20
2019-04-07T04:26:18.053Z,9.20
2019-04-07T04:28:51.971Z,9.10
2019-04-07T04:31:25.706Z,9.10
2019-04-07T04:33:59.178Z,9.00
2019-04-07T04:36:33.743Z,9.00
2019-04-07T04:39:08.519Z,9.00
2019-04-07T04:41:42.609Z,9.00
2019-04-07T04:44:16.497Z,9.00
2019-04-07T04:46:50.206Z,9.00
2019-04-07T04:49:23.678Z,9.00
2019-04-07T04:52:00.525Z,9.00
2019-04-07T04:54:34.141Z,9.00
2019-04-07T04:57:09.167Z,9.00
2019-04-07T04:59:42.805Z,9.10
2019-04-07T05:02:17.111Z,9.10
2019-04-07T05:04:51.583Z,9.20
2019-04-07T05:07:26.303Z,9.20
2019-04-07T05:10:00.071Z,9.20
2019-04-07T05:12:33.562Z,9.20
2019-04-07T05:15:09.807Z,9.20
2019-04-07T05:17:43.607Z,9.30
2019-04-07T05:20:17.343Z,9.30
2019-04-07T05:22:53.408Z,9.30
2019-04-07T05:25:27.404Z,9.30
2019-04-07T05:28:01.225Z,9.40
2019-04-07T05:30:47.146Z,9.30
2019-04-07T05:33:21.118Z,9.40
2019-04-07T05:35:54.845Z,9.60
2019-04-07T05:38:29.061Z,9.70
2019-04-07T05:41:02.997Z,9.80
2019-04-07T05:43:36.960Z,9.90
2019-04-07T05:46:10.445Z,9.90
2019-04-07T05:48:44.511Z,9.80
2019-04-07T05:51:18.034Z,9.80
2019-04-07T05:53:51.686Z,9.80
2019-04-07T05:56:28.104Z,9.90
2019-04-07T05:59:00.577Z,9.90
2019-04-07T06:01:34.536Z,9.90
2019-04-07T06:04:08.912Z,9.70
2019-04-07T06:06:42.413Z,9.70
2019-04-07T06:09:18.910Z,9.70
2019-04-07T06:11:51.009Z,9.70
2019-04-07T06:14:26.030Z,9.80
2019-04-07T06:17:00.010Z,9.80
2019-04-07T06:19:37.461Z,9.80
2019-04-07T06:22:08.673Z,9.90
2019-04-07T06:24:42.173Z,9.90
2019-04-07T06:27:16.956Z,9.90
2019-04-07T06:29:51.238Z,9.90
2019-04-07T06:32:25.542Z,9.90
2019-04-07T06:34:59.392Z,10.00
2019-04-07T06:37:33.115Z,10.00
2019-04-07T06:40:07.892Z,10.10
2019-04-07T06:42:43.942Z,10.20
2019-04-07T06:45:23.656Z,10.20
2019-04-07T06:48:07.708Z,10.30
2019-04-07T06:50:50.252Z,10.40
2019-04-07T06:53:39.227Z,10.40
2019-04-07T06:56:17.562Z,10.60
2019-04-07T06:59:13.869Z,10.60
2019-04-07T07:01:47.695Z,10.60
2019-04-07T07:04:23.221Z,10.70
2019-04-07T07:06:58.933Z,10.70
2019-04-07T07:09:50.289Z,10.70
2019-04-07T07:12:32.301Z,10.60
2019-04-07T07:15:09.081Z,10.70
2019-04-07T07:17:47.960Z,10.80
2019-04-07T07:20:37.331Z,10.80
2019-04-07T07:23:15.825Z,10.60
2019-04-07T07:25:50.529Z,10.60
2019-04-07T07:28:24.153Z,10.50
2019-04-07T07:30:57.520Z,10.40
2019-04-07T07:33:31.129Z,10.40
2019-04-07T07:36:04.839Z,10.40
2019-04-07T07:38:38.503Z,10.50
2019-04-07T07:41:11.964Z,10.70
2019-04-07T07:43:46.048Z,10.70
2019-04-07T07:46:21.825Z,10.90
2019-04-07T07:48:58.922Z,11.00
2019-04-07T07:51:30.345Z,10.90
2019-04-07T07:54:04.647Z,11.10
2019-04-07T07:56:41.377Z,11.20
2019-04-07T07:59:13.474Z,11.20
2019-04-07T08:01:47.543Z,11.30
2019-04-07T08:04:24.819Z,11.40
2019-04-07T08:07:02.309Z,11.30
2019-04-07T08:09:35.726Z,11.20
2019-04-07T08:12:09.494Z,11.30
2019-04-07T08:14:44.630Z,11.50
2019-04-07T08:17:19.337Z,11.50
2019-04-07T08:19:53.044Z,11.60
2019-04-07T08:22:32.558Z,11.30
2019-04-07T08:25:02.439Z,11.20
2019-04-07T08:27:36.134Z,11.30
2019-04-07T08:30:13.314Z,11.20
2019-04-07T08:32:45.459Z,11.30
2019-04-07T08:35:19.779Z,11.10
2019-04-07T08:37:53.461Z,11.20
2019-04-07T08:40:27.437Z,11.00
2019-04-07T08:43:01.218Z,11.20
2019-04-07T08:45:35.060Z,11.20
2019-04-07T08:48:09.060Z,11.20
2019-04-07T08:50:43.771Z,11.30
2019-04-07T08:53:17.274Z,11.00
2019-04-07T08:55:54.390Z,10.40
2019-04-07T08:58:29.005Z,10.40
2019-04-07T09:01:02.084Z,10.90
2019-04-07T09:03:36.800Z,10.50
2019-04-07T09:06:10.954Z,10.50
2019-04-07T09:08:44.964Z,10.40
2019-04-07T09:11:22.239Z,10.40
2019-04-07T09:13:55.921Z,10.60
2019-04-07T09:16:31.206Z,10.90
2019-04-07T09:19:13.693Z,11.00
2019-04-07T09:21:51.437Z,10.90
2019-04-07T09:24:43.930Z,11.30
2019-04-07T09:27:36.295Z,11.20
2019-04-07T09:30:15.301Z,11.20
2019-04-07T09:32:48.672Z,11.00
2019-04-07T09:35:24.044Z,11.00
2019-04-07T09:37:56.767Z,11.10
2019-04-07T09:40:39.404Z,11.30
2019-04-07T09:43:34.835Z,11.50
2019-04-07T09:46:26.511Z,11.50
2019-04-07T09:49:11.897Z,11.50
2019-04-07T09:51:56.269Z,11.80
2019-04-07T09:54:31.377Z,12.00
2019-04-07T09:57:22.582Z,12.20
2019-04-07T10:00:00.496Z,12.30
2019-04-07T10:02:44.861Z,12.40
2019-04-07T10:05:19.989Z,12.50
2019-04-07T10:08:13.736Z,12.40
2019-04-07T10:10:48.306Z,12.20
2019-04-07T10:13:29.667Z,12.10
2019-04-07T10:16:09.966Z,12.50
2019-04-07T10:18:52.154Z,12.60
2019-04-07T10:21:31.141Z,12.90
2019-04-07T10:24:12.237Z,12.90
2019-04-07T10:27:02.453Z,13.20
2019-04-07T10:29:43.878Z,13.40
2019-04-07T10:32:27.995Z,13.70
2019-04-07T10:35:03.145Z,13.40
2019-04-07T10:37:38.907Z,13.30
2019-04-07T10:40:25.464Z,13.20
2019-04-07T10:43:18.621Z,13.40
2019-04-07T10:46:12.443Z,13.30
2019-04-07T10:48:53.670Z,13.20
2019-04-07T10:51:31.933Z,13.40
2019-04-07T10:54:25.094Z,13.20
2019-04-07T10:57:00.958Z,13.30
2019-04-07T10:59:45.303Z,13.10
2019-04-07T11:02:20.312Z,13.20
2019-04-07T11:05:01.907Z,13.20
2019-04-07T11:07:53.688Z,13.30
2019-04-07T11:10:45.274Z,13.30
2019-04-07T11:13:36.849Z,13.50
2019-04-07T11:16:10.904Z,13.30
2019-04-07T11:18:50.444Z,13.50
2019-04-07T11:21:28.302Z,13.60
2019-04-07T11:24:12.341Z,13.60
2019-04-07T11:26:47.546Z,13.70
2019-04-07T11:29:36.250Z,13.60
2019-04-07T11:32:12.236Z,13.70
2019-04-07T11:35:03.860Z,13.60
2019-04-07T11:37:41.917Z,13.40
2019-04-07T11:40:26.064Z,13.40
2019-04-07T11:43:10.653Z,13.20
2019-04-07T11:45:56.165Z,13.40
2019-04-07T11:48:26.354Z,13.30
2019-04-07T11:51:11.527Z,13.30
2019-04-07T11:53:56.716Z,13.30
2019-04-07T11:56:31.746Z,13.50
2019-04-07T11:59:06.882Z,13.80
2019-04-07T12:01:51.984Z,13.90
2019-04-07T12:04:25.234Z,14.00
2019-04-07T12:07:19.247Z,13.90
2019-04-07T12:09:54.230Z,14.00
2019-04-07T12:12:30.005Z,14.00
2019-04-07T12:15:22.742Z,14.20
2019-04-07T12:18:07.174Z,14.20
2019-04-07T12:21:01.126Z,14.30
2019-04-07T12:23:43.435Z,14.10
2019-04-07T12:26:31.475Z,14.00
2019-04-07T12:29:12.603Z,14.00
2019-04-07T12:31:48.450Z,14.30
2019-04-07T12:34:26.575Z,14.40
2019-04-07T12:37:07.564Z,14.60
2019-04-07T12:39:57.894Z,14.50
2019-04-07T12:42:48.884Z,14.50
2019-04-07T12:45:27.772Z,14.50
2019-04-07T12:48:06.837Z,14.50
2019-04-07T12:50:43.659Z,14.60
2019-04-07T12:53:19.554Z,14.70
2019-04-07T12:55:57.644Z,14.90
2019-04-07T12:58:33.552Z,14.80
2019-04-07T13:01:19.952Z,14.70
2019-04-07T13:04:04.714Z,14.90
2019-04-07T13:06:45.423Z,14.60
2019-04-07T13:09:32.394Z,14.60
2019-04-07T13:12:07.664Z,14.50
2019-04-07T13:14:50.238Z,14.50
2019-04-07T13:17:38.110Z,14.60
2019-04-07T13:20:21.540Z,14.60
2019-04-07T13:23:13.679Z,14.70
2019-04-07T13:26:00.860Z,15.00
2019-04-07T13:28:41.875Z,14.80
2019-04-07T13:31:17.030Z,14.80
2019-04-07T13:33:59.590Z,14.80
2019-04-07T13:36:34.409Z,14.70
2019-04-07T13:39:17.959Z,14.50
2019-04-07T13:42:00.312Z,14.40
2019-04-07T13:44:38.750Z,14.40
2019-04-07T13:47:22.003Z,14.20
2019-04-07T13:50:13.773Z,14.10
2019-04-07T13:52:55.011Z,14.20
2019-04-07T13:55:35.051Z,14.30
2019-04-07T13:58:19.704Z,14.30
2019-04-07T14:01:18.512Z,14.10
2019-04-07T14:03:58.669Z,14.10
2019-04-07T14:06:45.012Z,14.20
2019-04-07T14:09:37.500Z,14.10
2019-04-07T14:12:12.839Z,14.20
2019-04-07T14:14:50.817Z,14.20
2019-04-07T14:17:24.756Z,14.40
2019-04-07T14:20:00.556Z,14.40
2019-04-07T14:22:36.381Z,14.50
2019-04-07T14:25:23.474Z,14.50
2019-04-07T14:28:02.314Z,14.50
2019-04-07T14:30:54.234Z,14.60
2019-04-07T14:33:35.864Z,14.70
2019-04-07T14:36:22.385Z,14.30
2019-04-07T14:39:02.082Z,14.00
2019-04-07T14:42:03.707Z,14.40
2019-04-07T14:44:31.893Z,14.30
2019-04-07T14:47:22.912Z,14.30
2019-04-07T14:50:16.373Z,14.20
2019-04-07T14:52:54.733Z,14.50
2019-04-07T14:55:31.493Z,14.60
2019-04-07T14:58:19.010Z,14.60
2019-04-07T15:01:04.511Z,14.70
2019-04-07T15:03:36.754Z,14.80
2019-04-07T15:06:10.922Z,15.00
2019-04-07T15:08:48.758Z,15.00
2019-04-07T15:11:21.912Z,14.60
2019-04-07T15:13:58.739Z,14.70
2019-04-07T15:16:30.506Z,14.40
2019-04-07T15:19:04.309Z,14.60
2019-04-07T15:21:37.914Z,14.70
2019-04-07T15:24:11.398Z,14.70
2019-04-07T15:26:49.511Z,14.50
2019-04-07T15:29:20.956Z,14.30
2019-04-07T15:31:54.504Z,14.10
2019-04-07T15:34:28.567Z,13.80
2019-04-07T15:37:02.343Z,13.90
2019-04-07T15:39:37.246Z,13.70
2019-04-07T15:42:11.482Z,13.70
2019-04-07T15:44:46.205Z,13.90
2019-04-07T15:47:21.135Z,13.80
2019-04-07T15:49:57.732Z,13.70
2019-04-07T15:52:31.491Z,13.70
2019-04-07T15:55:07.325Z,13.60
2019-04-07T15:57:40.952Z,13.50
2019-04-07T16:00:15.334Z,13.40
2019-04-07T16:02:50.201Z,13.40
2019-04-07T16:05:23.864Z,13.20
2019-04-07T16:07:57.798Z,13.20
2019-04-07T16:10:31.394Z,13.20
2019-04-07T16:13:04.996Z,13.20
2019-04-07T16:15:38.473Z,13.30
2019-04-07T16:18:12.646Z,13.40
2019-04-07T16:20:46.633Z,13.50
2019-04-07T16:23:20.992Z,13.30
2019-04-07T16:25:57.986Z,13.20
2019-04-07T16:28:30.782Z,13.20
2019-04-07T16:31:06.433Z,13.30
2019-04-07T16:33:41.008Z,13.30
2019-04-07T16:36:14.890Z,13.40
2019-04-07T16:38:48.385Z,13.40
2019-04-07T16:41:22.355Z,13.40
2019-04-07T16:43:55.974Z,13.40
2019-04-07T16:46:30.422Z,13.40
2019-04-07T16:49:04.558Z,13.30
2019-04-07T16:51:38.416Z,13.30
2019-04-07T16:54:11.847Z,13.20
2019-04-07T16:56:45.538Z,13.00
2019-04-07T16:59:19.450Z,13.10
2019-04-07T17:01:53.026Z,13.10
2019-04-07T17:04:26.816Z,13.10
2019-04-07T17:07:05.019Z,13.10
2019-04-07T17:09:36.598Z,13.10
2019-04-07T17:12:11.609Z,13.00
2019-04-07T17:14:45.975Z,13.00
2019-04-07T17:17:21.716Z,12.90
2019-04-07T17:19:57.480Z,12.80
2019-04-07T17:22:30.478Z,12.80
2019-04-07T17:25:07.479Z,12.60
2019-04-07T17:27:42.385Z,12.50
2019-04-07T17:30:23.651Z,12.30
2019-04-07T17:32:56.607Z,12.20
2019-04-07T17:35:30.742Z,11.90
2019-04-07T17:38:06.890Z,11.40
2019-04-07T17:40:51.846Z,11.40
2019-04-07T17:43:43.541Z,11.30
2019-04-07T17:46:10.604Z,11.20
2019-04-07T17:48:58.580Z,11.10
2019-04-07T17:51:43.859Z,11.00
2019-04-07T17:54:28.933Z,11.00
2019-04-07T17:57:06.498Z,10.90
2019-04-07T17:59:44.870Z,10.80
2019-04-07T18:02:34.935Z,10.60
2019-04-07T18:05:11.446Z,10.50
2019-04-07T18:08:05.863Z,10.50
2019-04-07T18:10:47.559Z,10.30
2019-04-07T18:13:43.322Z,10.20
2019-04-07T18:16:21.303Z,10.20
2019-04-07T18:19:05.515Z,10.00
2019-04-07T18:21:44.842Z,9.90
2019-04-07T18:24:18.431Z,9.70
2019-04-07T18:27:03.353Z,9.70
2019-04-07T18:29:42.873Z,9.60
2019-04-07T18:32:25.318Z,9.60
2019-04-07T18:35:03.126Z,9.40
2019-04-07T18:37:44.290Z,9.40
2019-04-07T18:40:19.944Z,9.20
2019-04-07T18:43:13.829Z,9.10
2019-04-07T18:45:51.309Z,9.00
2019-04-07T18:48:42.243Z,8.90
2019-04-07T18:55:18.554Z,8.80
2019-04-07T18:58:21.196Z,8.80
2019-04-07T19:01:11.617Z,8.80
2019-04-07T19:03:56.675Z,8.60
2019-04-07T19:06:52.655Z,8.10
2019-04-07T19:09:30.268Z,8.10
2019-04-07T19:12:13.131Z,8.00
2019-04-07T19:14:47.837Z,7.70
2019-04-07T19:17:21.680Z,7.50
2019-04-07T19:20:08.897Z,7.50
2019-04-07T19:22:51.475Z,7.40
2019-04-07T19:25:27.011Z,7.20
2019-04-07T19:28:12.662Z,7.10
2019-04-07T19:30:50.107Z,7.00
2019-04-07T19:33:40.365Z,7.00
2019-04-07T19:36:27.856Z,7.00
2019-04-07T19:39:09.966Z,7.00
2019-04-07T19:42:07.113Z,6.90
2019-04-07T19:44:41.326Z,6.90
2019-04-07T19:47:20.700Z,6.60
2019-04-07T19:50:11.120Z,6.80
2019-04-07T19:53:05.642Z,7.00
2019-04-07T19:55:38.813Z,7.00
2019-04-07T19:58:19.872Z,6.70
2019-04-07T20:01:12.917Z,6.60
2019-04-07T20:04:03.859Z,6.70
2019-04-07T20:06:42.726Z,6.80
2019-04-07T20:09:17.603Z,6.90
2019-04-07T20:12:05.194Z,6.90
2019-04-07T20:15:03.031Z,6.70
2019-04-07T20:17:37.679Z,6.50
2019-04-07T20:20:30.255Z,6.20
2019-04-07T20:23:09.125Z,6.30
2019-04-07T20:25:45.988Z,6.20
2019-04-07T20:28:19.470Z,6.00
2019-04-07T20:30:56.884Z,6.10
2019-04-07T20:33:40.685Z,6.10
2019-04-07T20:36:21.524Z,5.90
2019-04-07T20:39:07.548Z,5.90
2019-04-07T20:41:43.063Z,5.80
2019-04-07T20:44:33.679Z,6.00
2019-04-07T20:47:05.592Z,6.10
2019-04-07T20:49:48.210Z,5.90
2019-04-07T20:52:29.928Z,6.10
2019-04-07T20:55:21.277Z,6.20
2019-04-07T20:58:10.195Z,6.20
2019-04-07T21:00:57.653Z,6.00
2019-04-07T21:03:45.035Z,5.70
2019-04-07T21:06:34.731Z,5.60
2019-04-07T21:09:10.697Z,5.60
2019-04-07T21:12:01.579Z,5.50
2019-04-07T21:14:36.691Z,5.70
2019-04-07T21:17:21.704Z,5.60
2019-04-07T21:19:57.530Z,5.40
2019-04-07T21:22:31.427Z,5.40
2019-04-07T21:25:09.280Z,5.30
2019-04-07T21:27:51.305Z,5.30
2019-04-07T21:30:34.146Z,5.20
2019-04-07T21:33:11.936Z,5.20
2019-04-07T21:36:07.850Z,5.40
2019-04-07T21:38:41.564Z,5.40
2019-04-07T21:41:28.914Z,5.50
2019-04-07T21:44:11.349Z,5.30
2019-04-07T21:47:02.490Z,5.20
2019-04-07T21:49:47.887Z,5.20
2019-04-07T21:52:23.377Z,4.90
2019-04-07T21:54:55.882Z,5.20
2019-04-07T21:57:54.946Z,5.20
2019-04-07T22:00:32.955Z,5.30
2019-04-07T22:03:13.420Z,5.30
2019-04-07T22:06:02.655Z,5.20
2019-04-07T22:11:32.634Z,4.90
2019-04-07T22:14:07.691Z,5.00
2019-04-07T22:16:47.112Z,4.90
2019-04-07T22:19:20.586Z,5.00
2019-04-07T22:21:56.568Z,5.10
2019-04-07T22:24:33.286Z,4.80
2019-04-07T22:27:05.559Z,4.90
2019-04-07T22:29:39.236Z,4.90
2019-04-07T22:32:17.478Z,5.00
2019-04-07T22:34:48.204Z,5.00
2019-04-07T22:37:22.471Z,4.90
2019-04-07T22:39:59.069Z,4.80
2019-04-07T22:42:32.967Z,4.70
2019-04-07T22:45:08.202Z,4.50
2019-04-07T22:47:43.429Z,4.60
2019-04-07T22:50:17.452Z,4.30
2019-04-07T22:52:51.041Z,4.20
2019-04-07T22:55:25.559Z,4.10
2019-04-07T22:57:59.882Z,4.20
2019-04-07T23:00:33.440Z,4.10
2019-04-07T23:03:08.465Z,4.20
2019-04-07T23:05:42.034Z,4.30
2019-04-07T23:08:18.760Z,4.50
2019-04-07T23:10:58.380Z,4.50
2019-04-07T23:13:29.157Z,4.60
2019-04-07T23:16:10.831Z,4.30
2019-04-07T23:18:38.547Z,4.10
2019-04-07T23:21:12.002Z,4.10
2019-04-07T23:23:46.230Z,4.20
2019-04-07T23:26:20.790Z,4.00
2019-04-07T23:28:54.427Z,3.90
2019-04-07T23:31:29.978Z,3.70
2019-04-07T23:34:03.448Z,3.90
2019-04-07T23:36:43.915Z,3.70
2019-04-07T23:39:18.161Z,3.60
2019-04-07T23:41:53.274Z,3.60
2019-04-07T23:44:27.647Z,3.60
2019-04-07T23:47:01.284Z,3.70
2019-04-07T23:49:34.845Z,3.60
2019-04-07T23:52:11.022Z,3.50
2019-04-07T23:54:44.687Z,3.40
2019-04-07T23:57:18.161Z,3.40
2019-04-07T23:59:51.657Z,3.30
